Etusivu
METAR-TAF:

METAR-TAF

Lentoasemat :

Macas, Ecuador

Leveyspiiri: 02-17-57-S, Pituuspiiri: 078-07-15-W, korkeus merenpinnasta: 1052 m

Tämänhetkinen sää

Tämä raportti tehtiin 24 minuuttia sitten, kello 17.00 UTC
Tuuli 3 kn pohjoisesta
Lämpötila 24°C
Kosteus 74%
Ilmanpaine 1019 hPa
Näkyvyys 10 km tai enemmän
Muutamia pilviä 2000 ft:n korkeudessa
Hajonneita pilviä 11000 ft:n korkeudessa

METAR: SEMC 131700Z 36003KT 9999 FEW020 BKN110 24/19 Q1019 RMK A3010

Aika: 12:24 (17:24 UTC)


TAF: puuttuu

Säähavainnot ja -ennusteet yli 4000 lentoasemalta (METAR- ja TAF-raportit).

Käytössä olevat sääasemat on merkitty karttaan keltaisilla ja punaisilla pisteillä.

Aseta hiiri pisteen päälle nähdäksesi sääaseman nimen.

Klikkaa sitten nähdäksesi säähavainnot ja -ennusteet.

Kartan vaihtaminen: klikkaa mustalla rastilla varustettuja vihreitä pisteitä, niin voit zoomata sisään; viivalla varustettua vihreää pistettä, niin voit zoomata ulos tai vihreitä nuolia, niin pääset viereisille kartoille.


METAR-TAF: